^^
Station Historical Data
Daily Summary for March 14, 2017 Units:  Metric    English   Both
« Previous Day
Next Day »
Daily Weekly Monthly Yearly Custom
  High: Low: Average:
Temperature: 35.8 °C 21.2 °C 26.8 °C
Dew Point: 7 °C -5.2 °C 3.3 °C
Humidity: 32% 10% 23%
Wind Speed: 38.5km/h 0km/h 7.7km/h
Wind Gust: 41.8km/h - -
Wind- - South
Pressure: 1010.7 hPa 1005.6 hPa -
Precipitation: 0 mm    
Historical Graphs
 
 
Tabular Data for March 14, 2017
Time Temperature Dew Point Pressure Wind Wind Speed Wind Gust Humidity Rainfall Rate (Hourly) solar Conditions
00:00 27.6 °C 5.2 °C 1009.7 hPa SSE 6.4 km/h 9.7 km/h 24% 0 mm 0.0 W/m2
00:05 27.4 °C 5 °C 1009.7 hPa Calm   6.4 km/h 24% 0 mm 0.0 W/m2
00:10 27.2 °C 4.9 °C 1009.7 hPa Calm     24% 0 mm 0.0 W/m2
00:15 27.1 °C 4.8 °C 1009.7 hPa Calm     24% 0 mm 0.0 W/m2
00:25 26.7 °C 5 °C 1009.7 hPa Calm     25% 0 mm 0.0 W/m2
00:30 26.7 °C 5 °C 1009.7 hPa Calm     25% 0 mm 0.0 W/m2
00:36 26.6 °C 4.4 °C 1009.7 hPa Calm     24% 0 mm 0.0 W/m2
00:41 26.5 °C 4.3 °C 1009.7 hPa Calm     24% 0 mm 0.0 W/m2
00:51 26.7 °C 4.5 °C 1009.7 hPa Calm     24% 0 mm 0.0 W/m2
00:56 26.5 °C 4.3 °C 1009.7 hPa Calm     24% 0 mm 0.0 W/m2
01:01 26.3 °C 4.1 °C 1009.7 hPa Calm     24% 0 mm 0.0 W/m2
01:07 26.1 °C 4.5 °C 1009.4 hPa Calm     25% 0 mm 0.0 W/m2
01:12 25.9 °C 4.4 °C 1009.4 hPa Calm     25% 0 mm 0.0 W/m2
01:17 25.8 °C 4.8 °C 1009.4 hPa Calm     26% 0 mm 0.0 W/m2
01:22 25.8 °C 4.8 °C 1009.4 hPa Calm     26% 0 mm 0.0 W/m2
01:27 25.8 °C 4.8 °C 1009.4 hPa Calm     26% 0 mm 0.0 W/m2
01:32 25.8 °C 5.4 °C 1009.4 hPa Calm     27% 0 mm 0.0 W/m2
01:38 25.6 °C 5.2 °C 1009 hPa Calm     27% 0 mm 0.0 W/m2
01:43 25.4 °C 5.6 °C 1009 hPa Calm     28% 0 mm 0.0 W/m2
01:48 25.3 °C 5.5 °C 1009 hPa Calm     28% 0 mm 0.0 W/m2
01:53 25.1 °C 5.8 °C 1009 hPa Calm     29% 0 mm 0.0 W/m2
02:04 24.8 °C 6 °C 1009 hPa Calm     30% 0 mm 0.0 W/m2
02:09 24.9 °C 6.1 °C 1009 hPa Calm     30% 0 mm 0.0 W/m2
02:14 24.9 °C 6.1 °C 1009 hPa Calm     30% 0 mm 0.0 W/m2
02:24 25.2 °C 5.4 °C 1009 hPa Calm     28% 0 mm 0.0 W/m2
02:29 25.3 °C 5 °C 1008.7 hPa SSE 11.1 km/h 11.3 km/h 27% 0 mm 0.0 W/m2
02:35 25.4 °C 5 °C 1008.7 hPa SSE 9.7 km/h 11.3 km/h 27% 0 mm 0.0 W/m2
02:40 25.4 °C 5 °C 1008.7 hPa SSE 6.4 km/h 8 km/h 27% 0 mm 0.0 W/m2
02:45 25.3 °C 5 °C 1008.7 hPa SSE 7.9 km/h 8 km/h 27% 0 mm 0.0 W/m2
02:50 25.1 °C 4.8 °C 1008.7 hPa SSE 7.9 km/h 9.7 km/h 27% 0 mm 0.0 W/m2
02:56 24.8 °C 5.1 °C 1008.7 hPa SSE 7.9 km/h 8 km/h 28% 0 mm 0.0 W/m2
03:01 24.6 °C 4.9 °C 1008.4 hPa SSE 4.7 km/h 6.4 km/h 28% 0 mm 0.0 W/m2
03:06 24.2 °C 4.5 °C 1008.4 hPa SSE 4.7 km/h 4.8 km/h 28% 0 mm 0.0 W/m2
03:11 23.9 °C 4.8 °C 1008.4 hPa SSE 4.7 km/h 6.4 km/h 29% 0 mm 0.0 W/m2
03:16 23.7 °C 4.6 °C 1008.4 hPa Calm     29% 0 mm 0.0 W/m2
03:21 23.5 °C 4.9 °C 1008.4 hPa Calm     30% 0 mm 0.0 W/m2
03:26 23.6 °C 5 °C 1008.4 hPa Calm     30% 0 mm 0.0 W/m2
03:32 23.6 °C 5 °C 1008.4 hPa Calm     30% 0 mm 0.0 W/m2
03:37 23.6 °C 5 °C 1008.4 hPa Calm     30% 0 mm 0.0 W/m2
03:42 23.5 °C 5.4 °C 1008.4 hPa Calm     31% 0 mm 0.0 W/m2
03:47 23.5 °C 5.4 °C 1008 hPa Calm     31% 0 mm 0.0 W/m2
03:52 23.4 °C 5.3 °C 1008 hPa Calm     31% 0 mm 0.0 W/m2
03:57 23.3 °C 5.2 °C 1008 hPa Calm     31% 0 mm 0.0 W/m2
04:03 23.3 °C 5.2 °C 1008 hPa Calm     31% 0 mm 0.0 W/m2
04:08 23.4 °C 5.3 °C 1008 hPa Calm     31% 0 mm 0.0 W/m2
04:14 23.4 °C 4.8 °C 1008 hPa Calm     30% 0 mm 0.0 W/m2
04:19 23.6 °C 5 °C 1008 hPa SSE 6.4 km/h 9.7 km/h 30% 0 mm 0.0 W/m2
04:24 23.6 °C 4.5 °C 1008.4 hPa SSE 7.9 km/h 9.7 km/h 29% 0 mm 0.0 W/m2
04:29 23.4 °C 4.8 °C 1008.4 hPa SSE 11.1 km/h 11.3 km/h 30% 0 mm 0.0 W/m2
04:34 23.3 °C 4.7 °C 1008 hPa SSE 7.9 km/h 9.7 km/h 30% 0 mm 0.0 W/m2
04:39 23.2 °C 4.7 °C 1008.4 hPa SSE 9.7 km/h 11.3 km/h 30% 0 mm 0.0 W/m2
04:45 23.1 °C 4.6 °C 1008.4 hPa SSE 9.7 km/h 11.3 km/h 30% 0 mm 0.0 W/m2
04:50 23 °C 4 °C 1008.4 hPa SSE 6.4 km/h 9.7 km/h 29% 0 mm 0.0 W/m2
04:55 22.9 °C 3.9 °C 1008.4 hPa SSE 6.4 km/h 8 km/h 29% 0 mm 0.0 W/m2
05:00 22.8 °C 4.3 °C 1008.4 hPa SSE 4.7 km/h 8 km/h 30% 0 mm 0.0 W/m2
05:05 22.7 °C 4.2 °C 1008.4 hPa SSE 4.7 km/h 4.8 km/h 30% 0 mm 0.0 W/m2
05:10 22.4 °C 4 °C 1008.4 hPa SSE 6.4 km/h 6.4 km/h 30% 0 mm 0.0 W/m2
05:15 22.2 °C 4.3 °C 1008.4 hPa SSE 4.7 km/h 4.8 km/h 31% 0 mm 0.0 W/m2
05:25 21.7 °C 4.3 °C 1008.4 hPa Calm     32% 0 mm 0.0 W/m2
05:30 21.5 °C 4.1 °C 1008.4 hPa Calm     32% 0 mm 0.0 W/m2
05:36 21.3 °C 3.9 °C 1008.4 hPa Calm     32% 0 mm 0.0 W/m2
05:41 21.2 °C 3.8 °C 1008.4 hPa Calm     32% 0 mm 0.0 W/m2
05:47 21.4 °C 3.6 °C 1008.4 hPa Calm     31% 0 mm 0.0 W/m2
05:52 21.5 °C 3.7 °C 1008.4 hPa Calm     31% 0 mm 0.0 W/m2
05:57 21.5 °C 3.7 °C 1008.7 hPa Calm     31% 0 mm 0.0 W/m2
06:02 21.5 °C 3.2 °C 1008.7 hPa Calm     30% 0 mm 0.0 W/m2
06:13 21.8 °C 3.5 °C 1008.7 hPa Calm     30% 0 mm 0.0 W/m2
06:18 21.8 °C 3.5 °C 1008.7 hPa Calm     30% 0 mm 0.0 W/m2
06:23 21.7 °C 3.8 °C 1008.7 hPa Calm     31% 0 mm 0.0 W/m2
06:33 21.8 °C 3.5 °C 1008.7 hPa Calm     30% 0 mm 0.0 W/m2
06:38 21.9 °C 3.1 °C 1008.7 hPa Calm     29% 0 mm 0.0 W/m2
06:44 21.9 °C 3.1 °C 1008.7 hPa Calm     29% 0 mm 0.0 W/m2
06:49 21.8 °C 3 °C 1008.7 hPa Calm     29% 0 mm 0.0 W/m2
06:54 21.6 °C 2.8 °C 1009 hPa Calm     29% 0 mm 7.0 W/m2
06:59 21.5 °C 3.2 °C 1009 hPa Calm     30% 0 mm 11.0 W/m2
07:03 21.5 °C 3.2 °C 1009 hPa Calm     30% 0 mm 14.0 W/m2
07:11 21.6 °C 3.3 °C 1009 hPa Calm     30% 0 mm 19.0 W/m2
07:44 23.3 °C 3.2 °C 1009.4 hPa Calm     27% 0 mm 132.0 W/m2
07:49 23.6 °C 3.5 °C 1009.4 hPa Calm     27% 0 mm 155.0 W/m2
08:03 24.2 °C 3.5 °C 1009.4 hPa Calm     26% 0 mm 204.0 W/m2
08:40 26.8 °C 5.1 °C 1009.4 hPa Calm     25% 0 mm 346.0 W/m2
08:51 27.3 °C 6.1 °C 1009.4 hPa Calm     26% 0 mm 388.0 W/m2
09:05 27.9 °C 6.6 °C 1009.4 hPa Calm     26% 0 mm 420.0 W/m2
09:13 29 °C 7 °C 1009.4 hPa Calm     25% 0 mm 459.0 W/m2
10:49 31.4 °C 5.7 °C 1009 hPa Calm     20% 0 mm 726.0 W/m2
11:03 31.9 °C 5.4 °C 1009 hPa NNW 6.4 km/h 6.4 km/h 19% 0 mm 759.0 W/m2
11:08 31.8 °C 5.3 °C 1009 hPa Calm     19% 0 mm 772.0 W/m2
11:15 32.1 °C 5.6 °C 1009 hPa Calm     19% 0 mm 780.0 W/m2
11:44 32.8 °C 5.4 °C 1008.7 hPa Calm     18% 0 mm 830.0 W/m2
11:49 32.7 °C 5.3 °C 1008.7 hPa Calm     18% 0 mm 838.0 W/m2
11:59 32.7 °C 5.3 °C 1008.7 hPa Calm     18% 0 mm 844.0 W/m2
12:10 33.1 °C 5.6 °C 1008.7 hPa Calm     18% 0 mm 854.0 W/m2
12:15 33.2 °C 5.7 °C 1008.4 hPa Calm   11.3 km/h 18% 0 mm 861.0 W/m2
12:20 33.6 °C 6 °C 1008.4 hPa Calm     18% 0 mm 863.0 W/m2
12:28 33.6 °C 6 °C 1008.4 hPa North 1.4 km/h 9.7 km/h 18% 0 mm 867.0 W/m2
12:36 33.7 °C 6.1 °C 1008 hPa Calm     18% 0 mm 870.0 W/m2
13:23 34.4 °C 4 °C 1007.3 hPa ESE 7.9 km/h 19.3 km/h 15% 0 mm 875.0 W/m2
13:25 34.3 °C 4 °C 1007.3 hPa ESE 13 km/h 20.9 km/h 15% 0 mm 877.0 W/m2
13:36 34.4 °C 3.1 °C 1007.3 hPa SE 6.4 km/h 16.1 km/h 14% 0 mm 874.0 W/m2
13:41 34.4 °C 3.1 °C 1007.3 hPa SSE 14.3 km/h 20.9 km/h 14% 0 mm 874.0 W/m2
14:27 34.7 °C 1.1 °C 1006.7 hPa SSW 13 km/h 22.5 km/h 12% 0 mm 476.0 W/m2
14:51 35.1 °C 1.4 °C 1006.3 hPa Calm   8 km/h 12% 0 mm 874.0 W/m2
15:06 35.4 °C 1.7 °C 1006 hPa SSW 11.1 km/h 14.5 km/h 12% 0 mm 805.0 W/m2
15:21 35.4 °C 1.7 °C 1005.6 hPa Calm   12.9 km/h 12% 0 mm 809.0 W/m2
15:32 35.2 °C 1.5 °C 1005.6 hPa Calm   9.7 km/h 12% 0 mm 795.0 W/m2
15:42 35.8 °C -0.6 °C 1005.6 hPa SSW 14.3 km/h 24.1 km/h 10% 0 mm 717.0 W/m2
15:57 35.3 °C -0.9 °C 1005.6 hPa SSW 19.5 km/h 32.2 km/h 10% 0 mm 649.0 W/m2
16:12 34.9 °C -1.2 °C 1005.6 hPa SSW 14.3 km/h 29 km/h 10% 0 mm 668.0 W/m2
16:27 34.2 °C -1.8 °C 1005.6 hPa SSW 32 km/h 37 km/h 10% 0 mm 227.0 W/m2
16:42 33.7 °C -0.8 °C 1006 hPa South 27.4 km/h 35.4 km/h 11% 0 mm 185.0 W/m2
16:57 32.8 °C -0.3 °C 1006 hPa SSW 25.9 km/h 37 km/h 12% 0 mm 137.0 W/m2
17:08 32.4 °C -0.7 °C 1006 hPa SSW 28.8 km/h 33.8 km/h 12% 0 mm 139.0 W/m2
17:11 32.4 °C -0.7 °C 1006 hPa SSW 28.8 km/h 33.8 km/h 12% 0 mm 139.0 W/m2
17:13 32.1 °C -0.9 °C 1006.3 hPa SSW 30.6 km/h 40.2 km/h 12% 0 mm 171.0 W/m2
17:23 32.4 °C -0.7 °C 1006.3 hPa South 37 km/h 38.6 km/h 12% 0 mm 446.0 W/m2
17:38 32.1 °C 0.2 °C 1006.3 hPa SSW 20.9 km/h 37 km/h 13% 0 mm 359.0 W/m2
17:43 31.9 °C 1.1 °C 1006.7 hPa SSW 28.8 km/h 40.2 km/h 14% 0 mm 343.0 W/m2
17:58 31.3 °C -0.4 °C 1006.7 hPa SSW 35.2 km/h 41.8 km/h 13% 0 mm 229.0 W/m2
18:03 30.8 °C 0.2 °C 1006.7 hPa SSW 35.2 km/h 38.6 km/h 14% 0 mm 67.0 W/m2
18:13 30.7 °C 0.1 °C 1006.7 hPa SSW 24.1 km/h 40.2 km/h 14% 0 mm 151.0 W/m2
18:35 30.6 °C 0.1 °C 1006.7 hPa South 38.5 km/h 38.6 km/h 14% 0 mm 84.0 W/m2
18:49 29.8 °C -0.6 °C 1007 hPa SSW 30.6 km/h 40.2 km/h 14% 0 mm 21.0 W/m2
18:53 29.3 °C 0 °C 1007 hPa SSW 27.4 km/h 33.8 km/h 15% 0 mm 12.0 W/m2
19:08 28.9 °C -0.3 °C 1007 hPa SSW 28.8 km/h 37 km/h 15% 0 mm 5.0 W/m2
19:23 28.5 °C 0.2 °C 1007 hPa SSW 22.7 km/h 37 km/h 16% 0 mm 0.0 W/m2
19:38 28.1 °C -0.1 °C 1007.3 hPa South 25.9 km/h 32.2 km/h 16% 0 mm 0.0 W/m2
19:59 27.7 °C -0.4 °C 1007.7 hPa South 16.3 km/h 32.2 km/h 16% 0 mm 0.0 W/m2
20:09 27.6 °C -1.4 °C 1007.7 hPa SSW 19.5 km/h 30.6 km/h 15% 0 mm 0.0 W/m2
20:18 27.3 °C -0.7 °C 1008 hPa South 22.7 km/h 33.8 km/h 16% 0 mm 0.0 W/m2
20:29 26.9 °C 0.6 °C 1008.4 hPa South 22.7 km/h 25.7 km/h 18% 0 mm 0.0 W/m2
20:40 26.6 °C 1.8 °C 1008.4 hPa South 13 km/h 27.4 km/h 20% 0 mm 0.0 W/m2
20:49 25.9 °C 1.9 °C 1008.7 hPa South 20.9 km/h 22.5 km/h 21% 0 mm 0.0 W/m2
21:04 25.5 °C 2.2 °C 1009 hPa SSW 16.3 km/h 22.5 km/h 22% 0 mm 0.0 W/m2
21:19 24.9 °C 2.9 °C 1009.4 hPa South 25.9 km/h 32.2 km/h 24% 0 mm 0.0 W/m2
21:41 24.3 °C 3.6 °C 1009.4 hPa SW 25.9 km/h 27.4 km/h 26% 0 mm 0.0 W/m2
21:56 24 °C 1.6 °C 1009.7 hPa SSW 24.1 km/h 30.6 km/h 23% 0 mm 0.0 W/m2
22:35 23.4 °C -3 °C 1010 hPa South 16.3 km/h 19.3 km/h 17% 0 mm 0.0 W/m2
22:56 23.2 °C -3.2 °C 1010 hPa South 11.1 km/h 16.1 km/h 17% 0 mm 0.0 W/m2
23:14 23.1 °C -5 °C 1010 hPa SSW 19.5 km/h 19.5 km/h 15% 0 mm 0.0 W/m2
23:32 22.8 °C -5.2 °C 1010.7 hPa SSW 11.1 km/h 17.7 km/h 15% 0 mm 0.0 W/m2
Canyon Roadhouse, Fishriver Canyon, Namibia
Compliments of Weather Underground - 2.25 mb